createdAt,value
2019-02-20T00:00:23.988Z,10.90
2019-02-20T00:02:56.286Z,11.53
2019-02-20T00:05:26.814Z,11.70
2019-02-20T00:07:57.870Z,11.83
2019-02-20T00:10:28.156Z,13.17
2019-02-20T00:12:59.034Z,12.53
2019-02-20T00:15:29.353Z,14.00
2019-02-20T00:17:59.876Z,13.63
2019-02-20T00:20:30.521Z,12.50
2019-02-20T00:23:01.034Z,11.63
2019-02-20T00:25:32.088Z,12.00
2019-02-20T00:28:02.594Z,11.13
2019-02-20T00:30:33.112Z,11.33
2019-02-20T00:33:03.337Z,11.03
2019-02-20T00:35:34.274Z,12.10
2019-02-20T00:38:05.027Z,10.97
2019-02-20T00:40:35.985Z,11.33
2019-02-20T00:43:06.213Z,12.03
2019-02-20T00:45:54.151Z,11.17
2019-02-20T00:48:42.280Z,11.27
2019-02-20T00:51:31.804Z,11.53
2019-02-20T00:54:03.847Z,12.00
2019-02-20T00:56:34.470Z,11.53
2019-02-20T00:59:05.085Z,10.73
2019-02-20T01:01:35.909Z,10.32
2019-02-20T01:04:06.953Z,11.17
2019-02-20T01:06:37.950Z,11.23
2019-02-20T01:09:08.661Z,11.00
2019-02-20T01:11:39.023Z,10.23
2019-02-20T01:14:09.766Z,10.20
2019-02-20T01:16:40.638Z,10.10
2019-02-20T01:19:11.255Z,10.40
2019-02-20T01:21:41.888Z,10.20
2019-02-20T01:24:12.826Z,10.40
2019-02-20T01:26:43.615Z,11.50
2019-02-20T01:29:14.200Z,12.03
2019-02-20T01:31:44.915Z,12.73
2019-02-20T01:34:15.960Z,13.27
2019-02-20T01:36:46.559Z,11.63
2019-02-20T01:39:18.150Z,12.33
2019-02-20T01:41:49.392Z,11.97
2019-02-20T01:44:20.457Z,13.20
2019-02-20T01:46:51.164Z,13.53
2019-02-20T01:49:21.801Z,12.78
2019-02-20T01:51:52.293Z,13.30
2019-02-20T01:54:23.222Z,13.77
2019-02-20T01:56:53.801Z,12.80
2019-02-20T01:59:25.352Z,13.20
2019-02-20T02:01:55.912Z,12.80
2019-02-20T02:04:26.265Z,13.17
2019-02-20T02:06:56.813Z,15.03
2019-02-20T02:09:27.785Z,13.43
2019-02-20T02:11:58.337Z,13.47
2019-02-20T02:14:28.955Z,13.13
2019-02-20T02:16:59.576Z,12.90
2019-02-20T02:19:30.874Z,12.80
2019-02-20T02:22:01.414Z,13.43
2019-02-20T02:24:32.277Z,12.70
2019-02-20T02:27:02.473Z,12.97
2019-02-20T02:29:33.357Z,12.43
2019-02-20T02:32:03.627Z,12.67
2019-02-20T02:34:34.514Z,11.43
2019-02-20T02:37:05.057Z,12.43
2019-02-20T02:39:36.207Z,12.30
2019-02-20T02:42:06.471Z,12.47
2019-02-20T02:44:37.041Z,11.83
2019-02-20T02:47:07.991Z,11.60
2019-02-20T02:49:38.610Z,12.37
2019-02-20T02:52:08.927Z,11.27
2019-02-20T02:54:39.944Z,11.80
2019-02-20T02:57:10.131Z,12.53
2019-02-20T02:59:40.723Z,11.83
2019-02-20T03:02:11.787Z,10.87
2019-02-20T03:04:42.159Z,11.83
2019-02-20T03:07:12.686Z,12.43
2019-02-20T03:09:43.244Z,11.00
2019-02-20T03:12:13.441Z,11.67
2019-02-20T03:14:44.009Z,11.03
2019-02-20T03:19:36.632Z,12.37
2019-02-20T03:22:07.509Z,10.83
2019-02-20T03:24:37.766Z,12.50
2019-02-20T03:27:08.060Z,11.93
2019-02-20T03:29:39.185Z,11.37
2019-02-20T03:32:10.255Z,11.73
2019-02-20T03:34:40.504Z,11.53
2019-02-20T03:37:11.099Z,11.87
2019-02-20T03:39:42.446Z,12.00
2019-02-20T03:42:13.073Z,10.80
2019-02-20T03:44:44.009Z,11.53
2019-02-20T03:47:14.744Z,10.90
2019-02-20T03:49:45.652Z,11.37
2019-02-20T03:52:16.213Z,10.20
2019-02-20T03:54:47.861Z,10.53
2019-02-20T03:57:18.356Z,11.17
2019-02-20T03:59:48.964Z,10.80
2019-02-20T04:02:20.227Z,10.63
2019-02-20T04:04:50.800Z,10.95
2019-02-20T04:07:21.647Z,10.77
2019-02-20T04:09:52.316Z,10.27
2019-02-20T04:12:23.190Z,11.03
2019-02-20T04:14:54.773Z,10.43
2019-02-20T04:17:25.952Z,10.87
2019-02-20T04:19:56.193Z,10.97
2019-02-20T04:22:27.082Z,11.13
2019-02-20T04:24:59.044Z,10.57
2019-02-20T04:27:29.665Z,10.60
2019-02-20T04:30:00.428Z,10.70
2019-02-20T04:32:30.818Z,10.37
2019-02-20T04:35:01.461Z,10.87
2019-02-20T04:37:32.104Z,9.77
2019-02-20T04:40:03.043Z,10.47
2019-02-20T04:42:33.649Z,10.07
2019-02-20T04:45:03.942Z,10.93
2019-02-20T04:47:34.555Z,10.17
2019-02-20T04:50:05.164Z,10.20
2019-02-20T04:52:35.802Z,10.70
2019-02-20T04:55:06.962Z,10.40
2019-02-20T04:57:37.264Z,10.87
2019-02-20T05:00:09.750Z,10.23
2019-02-20T05:02:40.960Z,10.77
2019-02-20T05:05:11.233Z,11.17
2019-02-20T05:07:42.131Z,10.55
2019-02-20T05:10:12.452Z,11.27
2019-02-20T05:12:42.735Z,11.23
2019-02-20T05:15:13.719Z,11.40
2019-02-20T05:17:43.937Z,11.43
2019-02-20T05:20:14.483Z,11.53
2019-02-20T05:22:44.810Z,11.27
2019-02-20T05:25:15.125Z,11.37
2019-02-20T05:27:46.178Z,10.80
2019-02-20T05:30:16.806Z,11.00
2019-02-20T05:32:47.732Z,11.60
2019-02-20T05:35:18.423Z,11.60
2019-02-20T05:37:50.031Z,11.10
2019-02-20T05:40:20.758Z,11.63
2019-02-20T05:42:51.705Z,11.60
2019-02-20T05:45:23.910Z,12.20
2019-02-20T05:47:54.212Z,11.77
2019-02-20T05:50:24.832Z,11.50
2019-02-20T05:52:55.871Z,11.03
2019-02-20T05:55:26.804Z,11.57
2019-02-20T05:57:57.119Z,11.60
2019-02-20T06:00:28.075Z,12.33
2019-02-20T06:02:58.654Z,14.30
2019-02-20T06:05:28.862Z,15.00
2019-02-20T06:07:59.767Z,13.73
2019-02-20T06:10:30.384Z,12.97
2019-02-20T06:13:00.953Z,12.55
2019-02-20T06:15:31.538Z,12.17
2019-02-20T06:18:01.768Z,12.17
2019-02-20T06:20:32.053Z,10.97
2019-02-20T06:23:03.753Z,10.97
2019-02-20T06:25:34.039Z,11.47
2019-02-20T06:28:04.328Z,11.80
2019-02-20T06:30:35.308Z,10.87
2019-02-20T06:33:05.880Z,12.10
2019-02-20T06:35:36.988Z,12.20
2019-02-20T06:38:10.533Z,11.43
2019-02-20T06:40:39.417Z,11.43
2019-02-20T06:43:10.364Z,11.28
2019-02-20T06:45:41.391Z,10.93
2019-02-20T06:48:12.022Z,11.97
2019-02-20T06:50:42.289Z,11.23
2019-02-20T06:53:12.984Z,10.80
2019-02-20T06:55:43.239Z,12.23
2019-02-20T06:58:13.526Z,11.90
2019-02-20T07:00:44.254Z,12.07
2019-02-20T07:03:14.466Z,11.23
2019-02-20T07:05:52.619Z,11.85
2019-02-20T07:09:15.262Z,11.00
2019-02-20T07:12:14.350Z,10.60
2019-02-20T07:15:10.903Z,11.97
2019-02-20T07:18:01.411Z,11.07
2019-02-20T07:20:53.093Z,12.37
2019-02-20T07:24:01.003Z,12.50
2019-02-20T07:27:16.479Z,12.30
2019-02-20T07:30:00.775Z,12.73
2019-02-20T07:32:31.896Z,12.33
2019-02-20T07:35:02.203Z,13.13
2019-02-20T07:37:32.506Z,14.80
2019-02-20T07:40:03.079Z,13.87
2019-02-20T07:42:34.932Z,14.77
2019-02-20T07:45:05.994Z,13.27
2019-02-20T07:47:37.878Z,13.30
2019-02-20T07:50:09.503Z,12.53
2019-02-20T07:52:40.520Z,11.93
2019-02-20T07:55:13.586Z,13.15
2019-02-20T07:57:44.251Z,11.93
2019-02-20T08:00:16.022Z,11.80
2019-02-20T08:02:46.221Z,11.80
2019-02-20T08:05:16.476Z,12.43
2019-02-20T08:07:47.065Z,12.93
2019-02-20T08:10:17.554Z,12.90
2019-02-20T08:12:48.982Z,12.00
2019-02-20T08:15:19.914Z,12.27
2019-02-20T08:17:50.985Z,11.80
2019-02-20T08:20:21.893Z,11.63
2019-02-20T08:22:53.087Z,11.73
2019-02-20T08:25:24.003Z,12.00
2019-02-20T08:27:54.772Z,11.80
2019-02-20T08:30:29.950Z,12.18
2019-02-20T08:33:00.662Z,11.80
2019-02-20T08:35:31.216Z,11.47
2019-02-20T08:38:01.511Z,11.10
2019-02-20T08:40:32.408Z,11.70
2019-02-20T08:43:02.976Z,12.13
2019-02-20T08:45:33.626Z,11.93
2019-02-20T08:48:03.843Z,10.23
2019-02-20T08:50:34.819Z,11.40
2019-02-20T08:53:05.221Z,11.40
2019-02-20T08:55:36.497Z,11.20
2019-02-20T08:58:07.282Z,12.17
2019-02-20T09:00:37.532Z,11.00
2019-02-20T09:03:08.088Z,12.00
2019-02-20T09:05:38.507Z,10.70
2019-02-20T09:08:09.119Z,11.67
2019-02-20T09:10:40.349Z,11.77
2019-02-20T09:13:10.996Z,10.37
2019-02-20T09:15:41.506Z,11.20
2019-02-20T09:18:12.018Z,11.70
2019-02-20T09:20:42.403Z,10.50
2019-02-20T09:23:13.025Z,10.93
2019-02-20T09:25:44.059Z,9.77
2019-02-20T09:28:14.686Z,10.50
2019-02-20T09:30:45.033Z,10.08
2019-02-20T09:33:16.463Z,11.00
2019-02-20T09:35:47.398Z,10.70
2019-02-20T09:38:18.026Z,9.77
2019-02-20T09:40:48.582Z,10.47
2019-02-20T09:43:19.604Z,10.00
2019-02-20T09:45:52.037Z,9.90
2019-02-20T09:48:23.020Z,10.27
2019-02-20T09:50:53.659Z,9.93
2019-02-20T09:53:23.868Z,9.67
2019-02-20T09:55:57.467Z,9.90
2019-02-20T09:58:27.957Z,10.23
2019-02-20T10:00:58.144Z,8.93
2019-02-20T10:03:28.739Z,10.87
2019-02-20T10:05:59.040Z,10.10
2019-02-20T10:08:29.609Z,10.37
2019-02-20T10:11:00.594Z,10.20
2019-02-20T10:13:31.451Z,10.10
2019-02-20T10:16:01.698Z,8.87
2019-02-20T10:18:32.318Z,9.33
2019-02-20T10:21:02.533Z,7.53
2019-02-20T10:23:33.197Z,6.90
2019-02-20T10:26:03.723Z,5.83
2019-02-20T10:28:34.345Z,6.45
2019-02-20T10:31:04.612Z,7.42
2019-02-20T10:33:34.932Z,6.95
2019-02-20T10:36:06.000Z,7.36
2019-02-20T10:38:36.879Z,6.77
2019-02-20T10:41:07.181Z,7.27
2019-02-20T10:43:38.068Z,7.13
2019-02-20T10:46:08.304Z,6.58
2019-02-20T10:48:39.196Z,7.17
2019-02-20T10:51:10.137Z,6.90
2019-02-20T10:53:40.988Z,7.17
2019-02-20T10:56:12.022Z,7.12
2019-02-20T10:58:42.739Z,7.53
2019-02-20T11:01:13.121Z,7.97
2019-02-20T11:03:43.716Z,7.22
2019-02-20T11:06:15.109Z,7.10
2019-02-20T11:08:46.002Z,7.30
2019-02-20T11:11:16.938Z,8.03
2019-02-20T11:13:47.881Z,6.97
2019-02-20T11:16:19.088Z,7.33
2019-02-20T11:18:50.274Z,7.80
2019-02-20T11:21:21.517Z,8.13
2019-02-20T11:23:51.930Z,7.85
2019-02-20T11:26:22.136Z,7.70
2019-02-20T11:28:52.807Z,7.97
2019-02-20T11:31:23.060Z,7.37
2019-02-20T11:33:53.652Z,7.17
2019-02-20T11:36:24.254Z,7.78
2019-02-20T11:38:54.700Z,7.25
2019-02-20T11:41:25.569Z,7.10
2019-02-20T11:43:56.792Z,7.47
2019-02-20T11:46:27.424Z,7.20
2019-02-20T11:48:58.161Z,7.03
2019-02-20T11:51:29.010Z,7.70
2019-02-20T11:53:59.232Z,8.63
2019-02-20T11:56:29.465Z,7.85
2019-02-20T11:59:00.090Z,7.53
2019-02-20T12:01:30.703Z,7.17
2019-02-20T12:04:00.923Z,8.03
2019-02-20T12:06:31.564Z,7.35
2019-02-20T12:09:02.276Z,7.58
2019-02-20T12:11:34.326Z,7.50
2019-02-20T12:14:05.376Z,6.85
2019-02-20T12:16:35.926Z,6.70
2019-02-20T12:19:10.453Z,7.17
2019-02-20T12:21:41.395Z,6.15
2019-02-20T12:24:12.334Z,6.45
2019-02-20T12:26:42.726Z,5.87
2019-02-20T12:29:13.306Z,6.53
2019-02-20T12:31:52.134Z,5.75
2019-02-20T12:34:16.679Z,6.30
2019-02-20T12:36:47.947Z,6.10
2019-02-20T12:39:18.477Z,6.00
2019-02-20T12:41:48.853Z,6.20
2019-02-20T12:44:19.508Z,6.20
2019-02-20T12:46:50.175Z,6.43
2019-02-20T12:49:20.481Z,5.25
2019-02-20T12:51:51.324Z,5.87
2019-02-20T12:54:21.525Z,4.95
2019-02-20T12:56:53.200Z,5.42
2019-02-20T12:59:23.740Z,4.78
2019-02-20T13:01:54.062Z,4.33
2019-02-20T13:04:24.673Z,4.47
2019-02-20T13:06:59.417Z,5.20
2019-02-20T13:09:28.264Z,4.10
2019-02-20T13:11:59.502Z,4.25
2019-02-20T13:14:30.757Z,4.62
2019-02-20T13:17:01.332Z,4.45
2019-02-20T13:19:32.172Z,4.80
2019-02-20T13:22:03.216Z,4.60
2019-02-20T13:24:34.144Z,4.53
2019-02-20T13:27:08.653Z,3.98
2019-02-20T13:29:36.846Z,3.52
2019-02-20T13:32:07.369Z,4.40
2019-02-20T13:34:37.693Z,4.17
2019-02-20T13:37:08.355Z,3.72
2019-02-20T13:39:39.272Z,3.85
2019-02-20T13:42:11.244Z,4.30
2019-02-20T13:44:42.285Z,4.40
2019-02-20T13:47:13.017Z,4.10
2019-02-20T13:49:44.558Z,3.67
2019-02-20T13:52:15.295Z,3.72
2019-02-20T13:54:46.243Z,3.33
2019-02-20T13:57:17.848Z,3.83
2019-02-20T13:59:49.463Z,4.28
2019-02-20T14:02:23.260Z,3.95
2019-02-20T14:04:53.752Z,3.60
2019-02-20T14:07:24.318Z,3.75
2019-02-20T14:09:54.978Z,3.87
2019-02-20T14:12:25.544Z,3.37
2019-02-20T14:14:56.425Z,3.70
2019-02-20T14:17:27.129Z,3.55
2019-02-20T14:19:57.951Z,4.28
2019-02-20T14:22:28.475Z,3.65
2019-02-20T14:24:59.478Z,3.42
2019-02-20T14:27:30.725Z,3.55
2019-02-20T14:30:01.239Z,3.70
2019-02-20T14:32:32.713Z,3.47
2019-02-20T14:35:03.584Z,3.50
2019-02-20T14:37:33.888Z,3.58
2019-02-20T14:40:04.193Z,3.08
2019-02-20T14:42:36.376Z,3.40
2019-02-20T14:45:07.775Z,3.30
2019-02-20T14:47:38.056Z,2.70
2019-02-20T14:50:09.182Z,3.10
2019-02-20T14:52:40.403Z,3.20
2019-02-20T14:55:11.137Z,3.52
2019-02-20T14:57:41.773Z,2.70
2019-02-20T15:00:12.776Z,2.52
2019-02-20T15:02:43.409Z,2.83
2019-02-20T15:05:14.075Z,2.40
2019-02-20T15:07:44.605Z,2.50
2019-02-20T15:10:15.444Z,2.60
2019-02-20T15:12:46.707Z,2.25
2019-02-20T15:15:18.977Z,2.10
2019-02-20T15:17:49.690Z,2.62
2019-02-20T15:20:20.531Z,2.80
2019-02-20T15:22:51.267Z,2.12
2019-02-20T15:25:22.462Z,3.15
2019-02-20T15:27:53.041Z,2.45
2019-02-20T15:30:23.350Z,2.57
2019-02-20T15:32:53.660Z,2.87
2019-02-20T15:35:24.231Z,2.65
2019-02-20T15:37:54.932Z,2.35
2019-02-20T15:40:25.795Z,3.22
2019-02-20T15:42:56.835Z,3.55
2019-02-20T15:45:27.452Z,2.75
2019-02-20T15:47:58.405Z,3.10
2019-02-20T15:50:29.598Z,2.47
2019-02-20T15:53:00.336Z,3.92
2019-02-20T15:55:31.202Z,3.52
2019-02-20T15:58:02.451Z,3.58
2019-02-20T16:00:33.020Z,4.05
2019-02-20T16:03:03.487Z,4.12
2019-02-20T16:05:34.089Z,3.47
2019-02-20T16:08:04.314Z,3.60
2019-02-20T16:10:35.234Z,3.85
2019-02-20T16:13:06.047Z,4.10
2019-02-20T16:15:36.994Z,3.67
2019-02-20T16:18:07.238Z,4.03
2019-02-20T16:20:37.554Z,3.42
2019-02-20T16:23:07.806Z,3.92
2019-02-20T16:25:38.384Z,3.92
2019-02-20T16:28:08.920Z,4.60
2019-02-20T16:30:39.764Z,4.03
2019-02-20T16:33:10.037Z,4.30
2019-02-20T16:35:40.588Z,3.67
2019-02-20T16:38:11.308Z,4.03
2019-02-20T16:40:42.291Z,3.40
2019-02-20T16:43:13.556Z,3.60
2019-02-20T16:45:44.468Z,3.63
2019-02-20T16:48:15.373Z,3.72
2019-02-20T16:50:45.901Z,3.30
2019-02-20T16:53:16.107Z,4.23
2019-02-20T16:55:46.600Z,3.70
2019-02-20T16:58:17.677Z,3.57
2019-02-20T17:00:48.631Z,3.60
2019-02-20T17:03:19.143Z,4.60
2019-02-20T17:05:49.656Z,6.53
2019-02-20T17:08:20.481Z,6.00
2019-02-20T17:10:51.207Z,6.60
2019-02-20T17:13:21.764Z,6.60
2019-02-20T17:15:52.357Z,6.37
2019-02-20T17:18:23.204Z,6.83
2019-02-20T17:20:53.535Z,6.17
2019-02-20T17:23:24.466Z,6.50
2019-02-20T17:25:55.018Z,5.93
2019-02-20T17:28:25.605Z,6.43
2019-02-20T17:30:56.272Z,5.70
2019-02-20T17:33:26.447Z,5.73
2019-02-20T17:35:57.010Z,6.47
2019-02-20T17:38:27.645Z,5.40
2019-02-20T17:40:58.158Z,6.47
2019-02-20T17:43:28.702Z,6.27
2019-02-20T17:45:59.424Z,7.07
2019-02-20T17:48:29.953Z,7.70
2019-02-20T17:51:00.602Z,8.67
2019-02-20T17:53:32.150Z,8.97
2019-02-20T17:56:02.403Z,9.10
2019-02-20T17:58:33.308Z,9.83
2019-02-20T18:01:05.698Z,10.80
2019-02-20T18:03:36.303Z,10.60
2019-02-20T18:06:06.912Z,9.93
2019-02-20T18:08:37.787Z,9.80
2019-02-20T18:11:08.086Z,10.10
2019-02-20T18:13:39.265Z,9.57
2019-02-20T18:16:09.493Z,9.27
2019-02-20T18:18:40.503Z,9.97
2019-02-20T18:21:11.461Z,10.50
2019-02-20T18:23:42.098Z,10.50
2019-02-20T18:26:13.090Z,10.80
2019-02-20T18:28:43.973Z,11.17
2019-02-20T18:31:14.605Z,10.43
2019-02-20T18:33:45.226Z,8.83
2019-02-20T18:36:15.893Z,11.17
2019-02-20T18:38:46.225Z,8.80
2019-02-20T18:41:17.056Z,8.40
2019-02-20T18:43:47.619Z,8.00
2019-02-20T18:46:17.769Z,7.93
2019-02-20T18:48:47.991Z,7.67
2019-02-20T18:51:18.947Z,7.93
2019-02-20T18:53:49.232Z,8.07
2019-02-20T18:56:21.806Z,9.57
2019-02-20T18:58:53.719Z,9.13
2019-02-20T19:01:24.499Z,8.97
2019-02-20T19:03:56.785Z,9.80
2019-02-20T19:06:27.861Z,10.83
2019-02-20T19:09:01.837Z,11.60
2019-02-20T19:12:09.200Z,9.60
2019-02-20T19:15:20.745Z,9.47
2019-02-20T19:18:47.550Z,9.57
2019-02-20T19:21:51.665Z,11.70
2019-02-20T19:24:56.954Z,12.00
2019-02-20T19:27:46.980Z,11.57
2019-02-20T19:31:13.671Z,10.97
2019-02-20T19:34:06.763Z,9.90
2019-02-20T19:37:22.463Z,10.60
2019-02-20T19:40:46.026Z,9.97
2019-02-20T19:43:50.590Z,8.40
2019-02-20T19:46:58.792Z,8.87
2019-02-20T19:50:01.195Z,8.27
2019-02-20T19:53:00.747Z,9.17
2019-02-20T19:56:01.418Z,8.10
2019-02-20T19:59:25.374Z,9.50
2019-02-20T20:02:40.437Z,9.67
2019-02-20T20:05:51.943Z,10.60
2019-02-20T20:08:53.584Z,10.70
2019-02-20T20:12:08.765Z,11.07
2019-02-20T20:15:22.622Z,11.20
2019-02-20T20:18:29.616Z,10.70
2019-02-20T20:21:50.535Z,12.30
2019-02-20T20:24:31.654Z,11.83
2019-02-20T20:27:30.160Z,11.87
2019-02-20T20:30:38.348Z,12.10
2019-02-20T20:33:51.414Z,11.80
2019-02-20T20:37:09.515Z,9.90
2019-02-20T20:40:27.077Z,10.20
2019-02-20T20:43:20.376Z,9.60
2019-02-20T20:46:43.446Z,11.00
2019-02-20T20:49:35.223Z,10.47
2019-02-20T20:52:53.068Z,10.87
2019-02-20T20:56:09.989Z,11.10
2019-02-20T20:59:23.627Z,10.03
2019-02-20T21:02:36.161Z,10.40
2019-02-20T21:06:05.984Z,10.07
2019-02-20T21:08:43.461Z,10.90
2019-02-20T21:12:02.059Z,10.93
2019-02-20T21:14:58.549Z,10.87
2019-02-20T21:18:18.533Z,11.03
2019-02-20T21:21:12.162Z,10.77
2019-02-20T21:24:18.482Z,11.00
2019-02-20T21:27:17.576Z,10.40
2019-02-20T21:30:18.061Z,10.57
2019-02-20T21:33:25.275Z,10.33
2019-02-20T21:36:00.761Z,10.55
2019-02-20T21:39:19.810Z,10.13
2019-02-20T21:42:27.168Z,10.87
2019-02-20T21:45:06.456Z,11.63
2019-02-20T21:48:13.205Z,11.37
2019-02-20T21:50:57.847Z,10.53
2019-02-20T21:54:08.385Z,10.47
2019-02-20T21:57:12.149Z,11.20
2019-02-20T22:00:12.203Z,11.10
2019-02-20T22:03:05.291Z,10.33
2019-02-20T22:06:07.570Z,10.00
2019-02-20T22:09:15.058Z,9.27
2019-02-20T22:12:32.693Z,8.83
2019-02-20T22:16:02.152Z,9.07
2019-02-20T22:19:04.980Z,8.80
2019-02-20T22:22:13.141Z,8.33
2019-02-20T22:25:24.568Z,8.83
2019-02-20T22:28:37.900Z,8.17
2019-02-20T22:31:54.632Z,8.83
2019-02-20T22:34:53.275Z,9.27
2019-02-20T22:38:16.541Z,8.87
2019-02-20T22:41:02.307Z,8.63
2019-02-20T22:44:09.720Z,8.33
2019-02-20T22:46:49.874Z,8.63
2019-02-20T22:50:04.459Z,8.90
2019-02-20T22:52:53.471Z,9.47
2019-02-20T22:55:37.681Z,8.80
2019-02-20T22:58:34.128Z,9.43
2019-02-20T23:01:22.170Z,8.88
2019-02-20T23:04:36.484Z,9.03
2019-02-20T23:07:31.148Z,8.57
2019-02-20T23:10:57.584Z,8.43
2019-02-20T23:14:21.503Z,8.83
2019-02-20T23:16:52.879Z,8.90
2019-02-20T23:19:23.593Z,8.43
2019-02-20T23:21:54.696Z,8.20
2019-02-20T23:24:25.684Z,8.90
2019-02-20T23:26:56.309Z,8.43
2019-02-20T23:29:26.957Z,8.50
2019-02-20T23:31:57.616Z,9.10
2019-02-20T23:34:27.948Z,8.48
2019-02-20T23:36:58.622Z,7.97
2019-02-20T23:39:29.788Z,8.03
2019-02-20T23:42:00.393Z,8.87
2019-02-20T23:44:31.643Z,8.17
2019-02-20T23:47:02.274Z,7.93
2019-02-20T23:49:33.320Z,8.10
2019-02-20T23:52:03.960Z,8.10
2019-02-20T23:54:34.892Z,8.27
2019-02-20T23:57:06.151Z,8.73
2019-02-20T23:59:38.304Z,8.60
